createdAt,value
2022-12-16T00:01:14.781Z,93864.88
2022-12-16T00:03:44.246Z,93858.22
2022-12-16T00:06:13.471Z,93864.75
2022-12-16T00:08:41.449Z,93865.63
2022-12-16T00:11:09.963Z,93862.78
2022-12-16T00:13:40.338Z,93859.41
2022-12-16T00:16:10.530Z,93864.75
2022-12-16T00:18:38.609Z,93863.13
2022-12-16T00:21:06.553Z,93861.38
2022-12-16T00:23:36.773Z,93865.78
2022-12-16T00:26:04.659Z,93866.63
2022-12-16T00:28:32.991Z,93857.41
2022-12-16T00:31:00.912Z,93867.53
2022-12-16T00:33:29.318Z,93873.69
2022-12-16T00:35:57.186Z,93869.38
2022-12-16T00:38:27.174Z,93868.47
2022-12-16T00:40:56.752Z,93864.06
2022-12-16T00:43:24.643Z,93858.94
2022-12-16T00:45:52.742Z,93854.63
2022-12-16T00:48:22.934Z,93858.81
2022-12-16T00:50:51.925Z,93857.78
2022-12-16T00:53:20.177Z,93867.19
2022-12-16T00:55:47.829Z,93863.94
2022-12-16T00:58:16.989Z,93868.94
2022-12-16T01:00:45.017Z,93879.31
2022-12-16T01:03:17.941Z,93881.84
2022-12-16T01:05:47.199Z,93881.03
2022-12-16T01:08:14.837Z,93891.06
2022-12-16T01:10:42.468Z,93896.25
2022-12-16T01:13:10.219Z,93896.69
2022-12-16T01:15:40.636Z,93898.63
2022-12-16T01:18:08.387Z,93905.59
2022-12-16T01:20:36.026Z,93915.03
2022-12-16T01:23:03.622Z,93911.75
2022-12-16T01:25:31.643Z,93914.44
2022-12-16T01:27:59.290Z,93916.09
2022-12-16T01:30:27.227Z,93915.25
2022-12-16T01:32:56.212Z,93910.97
2022-12-16T01:35:51.910Z,93917.00
2022-12-16T01:38:11.426Z,93921.09
2022-12-16T01:40:39.085Z,93922.81
2022-12-16T01:43:12.628Z,93924.56
2022-12-16T01:45:40.618Z,93930.19
2022-12-16T01:48:20.799Z,93929.53
2022-12-16T01:50:50.807Z,93919.72
2022-12-16T01:53:18.552Z,93917.50
2022-12-16T01:55:50.650Z,93914.22
2022-12-16T01:58:23.392Z,93915.97
2022-12-16T02:00:51.522Z,93915.13
2022-12-16T02:03:21.387Z,93918.63
2022-12-16T02:05:50.225Z,93921.19
2022-12-16T02:08:19.912Z,93914.31
2022-12-16T02:11:01.721Z,93916.16
2022-12-16T02:13:40.119Z,93915.34
2022-12-16T02:16:17.351Z,93920.59
2022-12-16T02:18:56.400Z,93922.31
2022-12-16T02:21:43.758Z,93930.00
2022-12-16T02:24:44.719Z,93926.66
2022-12-16T02:27:41.743Z,93924.88
2022-12-16T02:30:25.703Z,93934.31
2022-12-16T02:33:04.186Z,93943.75
2022-12-16T02:35:40.954Z,93945.47
2022-12-16T02:38:18.831Z,93949.88
2022-12-16T02:40:53.025Z,93955.00
2022-12-16T02:43:36.852Z,93950.00
2022-12-16T02:46:08.236Z,93954.31
2022-12-16T02:48:36.406Z,93954.31
2022-12-16T02:51:04.162Z,93954.41
2022-12-16T02:53:34.611Z,93961.97
2022-12-16T02:56:12.535Z,93962.81
2022-12-16T02:58:48.118Z,93963.72
2022-12-16T03:01:25.571Z,93973.94
2022-12-16T03:04:01.363Z,93973.03
2022-12-16T03:06:31.632Z,93974.78
2022-12-16T03:09:03.019Z,93984.91
2022-12-16T03:11:32.415Z,93983.28
2022-12-16T03:14:02.347Z,93986.03
2022-12-16T03:16:33.709Z,93978.25
2022-12-16T03:19:06.722Z,93974.66
2022-12-16T03:21:39.561Z,93970.88
2022-12-16T03:24:10.700Z,93971.28
2022-12-16T03:26:44.435Z,93973.34
2022-12-16T03:29:16.384Z,93974.78
2022-12-16T03:31:52.062Z,93974.97
2022-12-16T03:34:28.004Z,93973.25
2022-12-16T03:37:01.405Z,93974.81
2022-12-16T03:39:30.065Z,93973.28
2022-12-16T03:41:58.413Z,93975.94
2022-12-16T03:44:26.337Z,93975.94
2022-12-16T03:46:55.292Z,93979.63
2022-12-16T03:49:23.638Z,93991.31
2022-12-16T03:51:51.279Z,93987.44
2022-12-16T03:54:19.199Z,94002.41
2022-12-16T03:56:47.649Z,93991.84
2022-12-16T03:59:15.328Z,94000.44
2022-12-16T04:01:43.754Z,93999.63
2022-12-16T04:04:13.488Z,94010.47
2022-12-16T04:06:41.221Z,94005.44
2022-12-16T04:09:09.080Z,94010.47
2022-12-16T04:11:54.312Z,94010.69
2022-12-16T04:14:39.589Z,94024.25
2022-12-16T04:17:24.871Z,94036.56
2022-12-16T04:20:11.606Z,94051.09
2022-12-16T04:22:59.459Z,94049.13
2022-12-16T04:25:32.685Z,94044.41
2022-12-16T04:28:00.785Z,94051.88
2022-12-16T04:30:30.012Z,94049.13
2022-12-16T04:33:18.071Z,94054.44
2022-12-16T04:36:04.721Z,94050.94
2022-12-16T04:38:50.000Z,94055.16
2022-12-16T04:41:35.297Z,94058.03
2022-12-16T04:44:21.165Z,94064.69
2022-12-16T04:47:06.925Z,94073.78
2022-12-16T04:50:00.759Z,94071.84
2022-12-16T04:52:47.310Z,94089.56
2022-12-16T04:55:32.578Z,94083.63
2022-12-16T04:58:19.711Z,94084.66
2022-12-16T05:01:06.105Z,94087.94
2022-12-16T05:03:51.858Z,94089.56
2022-12-16T05:06:37.794Z,94101.63
2022-12-16T05:09:25.889Z,94110.00
2022-12-16T05:12:11.176Z,94112.09
2022-12-16T05:14:56.478Z,94114.13
2022-12-16T05:17:41.675Z,94117.38
2022-12-16T05:20:26.925Z,94118.63
2022-12-16T05:23:14.487Z,94130.38
2022-12-16T05:26:01.137Z,94130.38
2022-12-16T05:28:46.890Z,94125.84
2022-12-16T05:31:32.283Z,94126.38
2022-12-16T05:34:17.437Z,94128.09
2022-12-16T05:37:02.767Z,94126.78
2022-12-16T05:39:48.041Z,94129.88
2022-12-16T05:42:34.778Z,94128.81
2022-12-16T05:45:20.070Z,94137.97
2022-12-16T05:48:07.374Z,94140.22
2022-12-16T05:50:57.946Z,94144.00
2022-12-16T05:53:43.356Z,94150.34
2022-12-16T05:56:28.540Z,94156.28
2022-12-16T05:59:16.650Z,94156.47
2022-12-16T06:02:07.386Z,94157.19
2022-12-16T06:04:52.712Z,94158.09
2022-12-16T06:07:37.956Z,94171.69
2022-12-16T06:10:23.953Z,94173.66
2022-12-16T06:13:09.344Z,94175.00
2022-12-16T06:15:56.004Z,94173.34
2022-12-16T06:18:41.385Z,94178.84
2022-12-16T06:21:26.884Z,94180.97
2022-12-16T06:24:12.158Z,94192.44
2022-12-16T06:26:57.455Z,94194.78
2022-12-16T06:29:42.657Z,94198.59
2022-12-16T06:32:40.771Z,94208.19
2022-12-16T06:35:26.881Z,94208.09
2022-12-16T06:38:12.885Z,94212.59
2022-12-16T06:40:57.983Z,94225.47
2022-12-16T06:43:56.376Z,94225.22
2022-12-16T06:46:41.689Z,94226.53
2022-12-16T06:49:28.263Z,94232.69
2022-12-16T06:52:13.606Z,94228.72
2022-12-16T06:54:59.046Z,94238.72
2022-12-16T06:57:44.425Z,94238.47
2022-12-16T07:00:30.777Z,94246.59
2022-12-16T07:06:49.521Z,94260.50
2022-12-16T07:09:35.494Z,94261.94
2022-12-16T07:12:20.083Z,94266.63
2022-12-16T07:15:05.360Z,94278.31
2022-12-16T07:17:50.742Z,94285.28
2022-12-16T07:20:36.027Z,94296.72
2022-12-16T07:23:22.579Z,94297.44
2022-12-16T07:26:08.561Z,94300.41
2022-12-16T07:29:08.344Z,94303.66
2022-12-16T07:31:56.545Z,94298.16
2022-12-16T07:34:47.162Z,94302.41
2022-12-16T07:37:35.208Z,94319.00
2022-12-16T07:40:22.315Z,94323.06
2022-12-16T07:43:09.019Z,94326.81
2022-12-16T07:45:54.825Z,94331.78
2022-12-16T07:48:43.427Z,94343.38
2022-12-16T07:51:28.837Z,94346.41
2022-12-16T07:54:14.144Z,94340.75
2022-12-16T07:57:00.674Z,94350.56
2022-12-16T07:59:46.723Z,94353.28
2022-12-16T08:02:35.352Z,94352.56
2022-12-16T08:05:20.917Z,94354.56
2022-12-16T08:08:06.271Z,94359.75
2022-12-16T08:10:51.431Z,94358.84
2022-12-16T08:13:37.581Z,94364.47
2022-12-16T08:16:23.226Z,94364.31
2022-12-16T08:19:11.221Z,94369.63
2022-12-16T08:21:56.657Z,94371.75
2022-12-16T08:24:56.481Z,94380.78
2022-12-16T08:27:41.840Z,94385.50
2022-12-16T08:30:29.384Z,94397.13
2022-12-16T08:33:19.321Z,94392.41
2022-12-16T08:36:05.284Z,94401.09
2022-12-16T08:38:52.960Z,94405.41
2022-12-16T08:41:38.255Z,94404.75
2022-12-16T08:44:23.639Z,94410.59
2022-12-16T08:47:10.145Z,94415.44
2022-12-16T08:49:57.886Z,94417.34
2022-12-16T08:52:54.548Z,94423.22
2022-12-16T08:55:39.910Z,94424.94
2022-12-16T08:58:25.248Z,94426.84
2022-12-16T09:01:27.753Z,94430.50
2022-12-16T09:04:10.871Z,94438.34
2022-12-16T09:06:55.968Z,94443.56
2022-12-16T09:09:41.384Z,94443.66
2022-12-16T09:12:26.569Z,94434.69
2022-12-16T09:15:12.142Z,94435.06
2022-12-16T09:18:12.833Z,94455.50
2022-12-16T09:21:02.085Z,94450.69
2022-12-16T09:23:47.119Z,94456.06
2022-12-16T09:26:32.621Z,94463.38
2022-12-16T09:29:17.705Z,94475.81
2022-12-16T09:32:02.965Z,94468.13
2022-12-16T09:34:48.547Z,94473.44
2022-12-16T09:37:35.120Z,94477.16
2022-12-16T09:40:19.780Z,94481.94
2022-12-16T09:43:09.464Z,94491.97
2022-12-16T09:46:03.874Z,94480.00
2022-12-16T09:48:59.551Z,94492.72
2022-12-16T09:51:45.388Z,94495.00
2022-12-16T09:54:35.875Z,94501.94
2022-12-16T09:57:22.632Z,94503.00
2022-12-16T10:00:14.014Z,94506.03
2022-12-16T10:03:06.542Z,94510.22
2022-12-16T10:06:03.088Z,94512.69
2022-12-16T10:09:00.113Z,94510.94
2022-12-16T10:11:57.427Z,94516.50
2022-12-16T10:14:50.233Z,94524.00
2022-12-16T10:17:41.699Z,94519.28
2022-12-16T10:20:35.260Z,94525.53
2022-12-16T10:23:24.811Z,94530.75
2022-12-16T10:26:15.100Z,94526.38
2022-12-16T10:29:05.119Z,94526.34
2022-12-16T10:31:51.582Z,94525.28
2022-12-16T10:34:39.195Z,94532.94
2022-12-16T10:37:24.363Z,94548.91
2022-12-16T10:40:14.770Z,94538.66
2022-12-16T10:43:06.644Z,94541.69
2022-12-16T10:45:59.265Z,94545.28
2022-12-16T10:48:55.143Z,94547.19
2022-12-16T10:51:43.425Z,94537.44
2022-12-16T10:54:50.296Z,94547.19
2022-12-16T10:57:48.868Z,94539.13
2022-12-16T11:00:36.674Z,94545.16
2022-12-16T11:03:38.221Z,94551.00
2022-12-16T11:06:24.919Z,94551.06
2022-12-16T11:09:10.161Z,94547.88
2022-12-16T11:11:55.714Z,94556.28
2022-12-16T11:15:05.650Z,94554.94
2022-12-16T11:17:47.889Z,94554.47
2022-12-16T11:20:36.323Z,94561.03
2022-12-16T11:23:48.523Z,94562.13
2022-12-16T11:26:38.487Z,94558.00
2022-12-16T11:29:31.916Z,94556.22
2022-12-16T11:32:21.280Z,94567.53
2022-12-16T11:35:12.051Z,94571.56
2022-12-16T11:38:04.379Z,94571.31
2022-12-16T11:40:51.188Z,94576.16
2022-12-16T11:43:37.966Z,94561.78
2022-12-16T11:46:28.441Z,94566.91
2022-12-16T11:49:23.415Z,94562.53
2022-12-16T11:52:35.840Z,94568.13
2022-12-16T11:56:03.634Z,94571.09
2022-12-16T11:58:44.058Z,94575.38
2022-12-16T12:01:33.451Z,94581.91
2022-12-16T12:04:18.621Z,94585.91
2022-12-16T12:07:24.185Z,94592.75
2022-12-16T12:10:19.234Z,94593.94
2022-12-16T12:13:14.749Z,94590.66
2022-12-16T12:16:08.197Z,94591.16
2022-12-16T12:19:18.348Z,94593.50
2022-12-16T12:22:10.919Z,94592.41
2022-12-16T12:25:04.829Z,94589.84
2022-12-16T12:27:57.319Z,94595.69
2022-12-16T12:30:43.867Z,94602.38
2022-12-16T12:33:46.456Z,94604.09
2022-12-16T12:36:38.270Z,94603.28
2022-12-16T12:39:35.604Z,94603.13
2022-12-16T12:42:35.523Z,94607.25
2022-12-16T12:45:36.738Z,94620.66
2022-12-16T12:48:29.972Z,94620.00
2022-12-16T12:51:23.495Z,94613.31
2022-12-16T12:54:18.959Z,94622.31
2022-12-16T12:57:07.508Z,94618.44
2022-12-16T13:00:12.285Z,94624.81
2022-12-16T13:03:05.438Z,94631.56
2022-12-16T13:05:55.517Z,94634.72
2022-12-16T13:09:04.857Z,94638.06
2022-12-16T13:11:50.040Z,94642.38
2022-12-16T13:15:12.059Z,94647.41
2022-12-16T13:18:45.787Z,94641.47
2022-12-16T13:22:02.883Z,94640.25
2022-12-16T13:25:09.276Z,94652.19
2022-12-16T13:28:08.779Z,94664.47
2022-12-16T13:30:54.068Z,94667.47
2022-12-16T13:33:57.413Z,94666.97
2022-12-16T13:36:53.338Z,94671.25
2022-12-16T13:39:48.566Z,94673.22
2022-12-16T13:43:08.953Z,94681.56
2022-12-16T13:45:56.792Z,94683.03
2022-12-16T13:48:51.004Z,94691.59
2022-12-16T13:52:24.527Z,94697.78
2022-12-16T13:55:33.388Z,94711.47
2022-12-16T13:58:23.719Z,94711.06
2022-12-16T14:01:22.921Z,94711.91
2022-12-16T14:04:11.067Z,94717.81
2022-12-16T14:06:58.376Z,94722.75
2022-12-16T14:09:50.783Z,94723.44
2022-12-16T14:12:55.695Z,94724.66
2022-12-16T14:15:46.343Z,94730.28
2022-12-16T14:18:43.909Z,94733.81
2022-12-16T14:21:35.547Z,94747.91
2022-12-16T14:24:25.924Z,94759.53
2022-12-16T14:27:11.273Z,94758.63
2022-12-16T14:30:01.946Z,94760.63
2022-12-16T14:32:48.793Z,94766.03
2022-12-16T14:35:36.803Z,94771.16
2022-12-16T14:38:40.072Z,94774.72
2022-12-16T14:41:29.563Z,94786.00
2022-12-16T14:44:14.765Z,94784.38
2022-12-16T14:47:01.511Z,94788.97
2022-12-16T14:49:48.283Z,94784.88
2022-12-16T14:52:46.184Z,94792.06
2022-12-16T14:55:35.049Z,94792.72
2022-12-16T14:58:22.727Z,94796.22
2022-12-16T15:01:13.787Z,94800.94
2022-12-16T15:04:04.428Z,94811.69
2022-12-16T15:06:54.929Z,94810.38
2022-12-16T15:09:44.332Z,94818.47
2022-12-16T15:12:31.797Z,94816.59
2022-12-16T15:15:17.994Z,94814.41
2022-12-16T15:18:08.288Z,94813.78
2022-12-16T15:20:56.879Z,94822.13
2022-12-16T15:23:45.328Z,94827.63
2022-12-16T15:26:36.244Z,94828.88
2022-12-16T15:29:21.502Z,94836.84
2022-12-16T15:32:06.850Z,94834.69
2022-12-16T15:35:03.524Z,94848.19
2022-12-16T15:38:00.656Z,94853.03
2022-12-16T15:40:51.551Z,94860.41
2022-12-16T15:43:41.892Z,94867.84
2022-12-16T15:46:36.421Z,94865.97
2022-12-16T15:49:21.899Z,94873.13
2022-12-16T15:52:09.308Z,94874.38
2022-12-16T15:55:10.692Z,94874.63
2022-12-16T15:57:56.958Z,94885.97
2022-12-16T16:00:45.057Z,94890.25
2022-12-16T16:03:42.653Z,94894.06
2022-12-16T16:06:41.863Z,94897.34
2022-12-16T16:09:32.125Z,94902.47
2022-12-16T16:12:18.652Z,94901.88
2022-12-16T16:15:04.055Z,94908.25
2022-12-16T16:18:03.999Z,94900.81
2022-12-16T16:20:49.079Z,94903.78
2022-12-16T16:23:34.751Z,94906.03
2022-12-16T16:26:20.355Z,94915.31
2022-12-16T16:29:07.009Z,94914.03
2022-12-16T16:31:51.499Z,94922.44
2022-12-16T16:34:36.835Z,94922.31
2022-12-16T16:37:22.286Z,94922.16
2022-12-16T16:40:22.138Z,94924.66
2022-12-16T16:43:07.551Z,94931.63
2022-12-16T16:45:53.333Z,94933.81
2022-12-16T16:48:38.635Z,94938.84
2022-12-16T16:51:23.925Z,94953.19
2022-12-16T16:54:09.283Z,94940.06
2022-12-16T16:56:56.047Z,94950.03
2022-12-16T16:59:42.794Z,94949.75
2022-12-16T17:02:40.415Z,94954.47
2022-12-16T17:05:26.941Z,94955.53
2022-12-16T17:08:12.332Z,94962.31
2022-12-16T17:10:57.626Z,94968.06
2022-12-16T17:13:42.838Z,94969.72
2022-12-16T17:16:29.410Z,94969.50
2022-12-16T17:19:15.887Z,94978.06
2022-12-16T17:22:01.164Z,94979.72
2022-12-16T17:24:49.272Z,94983.84
2022-12-16T17:27:38.809Z,94991.91
2022-12-16T17:30:31.111Z,94993.25
2022-12-16T17:33:16.330Z,94997.81
2022-12-16T17:36:02.931Z,95005.72
2022-12-16T17:38:48.248Z,94997.28
2022-12-16T17:41:33.596Z,95006.69
2022-12-16T17:44:18.968Z,95016.72
2022-12-16T17:47:04.392Z,95018.19
2022-12-16T17:49:49.492Z,95016.94
2022-12-16T17:52:36.156Z,95034.38
2022-12-16T17:55:21.508Z,95035.16
2022-12-16T17:58:06.985Z,95037.47
2022-12-16T18:00:52.225Z,95036.31
2022-12-16T18:03:38.045Z,95038.81
2022-12-16T18:06:24.191Z,95042.34
2022-12-16T18:09:10.793Z,95041.19
2022-12-16T18:11:56.086Z,95040.69
2022-12-16T18:14:43.648Z,95049.38
2022-12-16T18:17:28.872Z,95049.19
2022-12-16T18:20:22.641Z,95054.81
2022-12-16T18:23:11.005Z,95055.94
2022-12-16T18:25:57.767Z,95069.19
2022-12-16T18:28:42.994Z,95072.56
2022-12-16T18:31:28.502Z,95083.97
2022-12-16T18:34:13.791Z,95079.28
2022-12-16T18:36:59.140Z,95082.41
2022-12-16T18:39:44.442Z,95078.00
2022-12-16T18:42:30.972Z,95089.88
2022-12-16T18:45:16.381Z,95086.63
2022-12-16T18:48:01.670Z,95097.81
2022-12-16T18:50:46.932Z,95094.75
2022-12-16T18:53:32.794Z,95101.97
2022-12-16T18:56:19.590Z,95103.97
2022-12-16T18:59:06.163Z,95110.94
2022-12-16T19:01:53.742Z,95108.50
2022-12-16T19:04:39.128Z,95114.19
2022-12-16T19:07:24.520Z,95112.69
2022-12-16T19:10:12.446Z,95118.38
2022-12-16T19:12:57.769Z,95121.56
2022-12-16T19:15:44.454Z,95123.00
2022-12-16T19:18:30.290Z,95117.78
2022-12-16T19:21:15.940Z,95114.13
2022-12-16T19:24:01.770Z,95121.28
2022-12-16T19:26:47.038Z,95127.47
2022-12-16T19:29:32.597Z,95131.69
2022-12-16T19:32:19.322Z,95136.00
2022-12-16T19:35:04.315Z,95138.97
2022-12-16T19:37:49.780Z,95154.22
2022-12-16T19:40:34.962Z,95149.25
2022-12-16T19:43:20.226Z,95149.53
2022-12-16T19:46:11.102Z,95155.88
2022-12-16T19:48:57.898Z,95161.25
2022-12-16T19:51:43.220Z,95159.63
2022-12-16T19:54:28.594Z,95159.91
2022-12-16T19:57:13.857Z,95178.06
2022-12-16T19:59:59.235Z,95167.00
2022-12-16T20:02:44.515Z,95163.41
2022-12-16T20:05:31.152Z,95177.97
2022-12-16T20:08:16.480Z,95190.75
2022-12-16T20:11:01.766Z,95188.88
2022-12-16T20:13:47.183Z,95187.22
2022-12-16T20:16:32.395Z,95201.66
2022-12-16T20:19:17.752Z,95197.97
2022-12-16T20:25:09.492Z,95221.63
2022-12-16T20:27:55.036Z,95215.75
2022-12-16T20:30:44.696Z,95217.31
2022-12-16T20:33:37.290Z,95227.69
2022-12-16T20:36:23.528Z,95232.38
2022-12-16T20:39:10.036Z,95237.63
2022-12-16T20:41:55.953Z,95250.63
2022-12-16T20:44:41.702Z,95250.41
2022-12-16T20:47:27.098Z,95245.19
2022-12-16T20:50:12.440Z,95253.88
2022-12-16T20:52:57.765Z,95259.09
2022-12-16T20:55:44.472Z,95266.16
2022-12-16T20:58:29.790Z,95267.41
2022-12-16T21:01:15.532Z,95272.13
2022-12-16T21:04:01.073Z,95267.75
2022-12-16T21:06:46.352Z,95283.00
2022-12-16T21:09:31.686Z,95282.53
2022-12-16T21:12:18.229Z,95285.75
2022-12-16T21:14:42.314Z,95212.84
2022-12-16T21:15:03.607Z,95283.84
2022-12-16T21:17:48.883Z,95290.38
2022-12-16T21:20:33.344Z,95294.94
2022-12-16T21:23:21.044Z,95294.03
2022-12-16T21:26:06.271Z,95294.63
2022-12-16T21:28:58.216Z,95302.28
2022-12-16T21:31:43.682Z,95305.59
2022-12-16T21:34:28.963Z,95310.59
2022-12-16T21:37:14.300Z,95312.47
2022-12-16T21:39:59.655Z,95318.16
2022-12-16T21:42:44.939Z,95319.13
2022-12-16T21:45:31.614Z,95326.31
2022-12-16T21:48:17.095Z,95324.59
2022-12-16T21:51:02.422Z,95330.53
2022-12-16T21:53:48.235Z,95338.97
2022-12-16T21:56:36.114Z,95339.66
2022-12-16T21:59:21.467Z,95340.25
2022-12-16T22:02:08.104Z,95344.19
2022-12-16T22:04:53.487Z,95344.41
2022-12-16T22:07:38.739Z,95352.06
2022-12-16T22:10:24.639Z,95348.03
2022-12-16T22:13:09.992Z,95365.69
2022-12-16T22:15:59.433Z,95364.84
2022-12-16T22:18:45.344Z,95361.94
2022-12-16T22:21:30.262Z,95363.38
2022-12-16T22:24:21.644Z,95382.75
2022-12-16T22:27:20.337Z,95382.84
2022-12-16T22:30:12.281Z,95388.16
2022-12-16T22:33:24.025Z,95390.53
2022-12-16T22:36:33.858Z,95393.84
2022-12-16T22:39:19.255Z,95399.25
2022-12-16T22:42:04.530Z,95403.41
2022-12-16T22:44:49.878Z,95407.41
2022-12-16T22:47:35.457Z,95402.44
2022-12-16T22:50:20.836Z,95398.19
2022-12-16T22:53:07.424Z,95394.69
2022-12-16T22:56:00.135Z,95400.16
2022-12-16T22:58:46.922Z,95412.97
2022-12-16T23:01:32.361Z,95409.28
2022-12-16T23:04:17.753Z,95419.03
2022-12-16T23:07:02.840Z,95423.47
2022-12-16T23:09:49.554Z,95417.69
2022-12-16T23:12:34.822Z,95417.63
2022-12-16T23:15:20.235Z,95430.63
2022-12-16T23:18:05.554Z,95428.16
2022-12-16T23:20:51.039Z,95426.59
2022-12-16T23:23:37.545Z,95429.34
2022-12-16T23:26:24.168Z,95429.94
2022-12-16T23:29:10.165Z,95440.00
2022-12-16T23:31:56.631Z,95433.25
2022-12-16T23:34:46.526Z,95438.19
2022-12-16T23:37:31.766Z,95438.44
2022-12-16T23:40:17.247Z,95452.41
2022-12-16T23:43:05.384Z,95447.72
2022-12-16T23:45:59.109Z,95454.84
2022-12-16T23:48:44.599Z,95443.69
2022-12-16T23:51:29.927Z,95445.81
2022-12-16T23:54:11.700Z,95444.47
2022-12-16T23:56:57.077Z,95449.31
2022-12-16T23:59:43.572Z,95460.13
